Time;durP1;ratioP1;P1;durP2;ratioP2;P2;SDS_P1;SDS_P2;PMS_P1;PMS_P2;Temp;Humidity;BMP_temperature;BMP_pressure;BME280_temperature;BME280_humidity;BME280_pressure;Samples;Min_cycle;Max_cycle;Signal;HPM_P1;HPM_P2
2022/10/17 00:00:21;;;;;;;;;;;;;;;21.21;100.00;99181.66;5059649;28;19924;-46
2022/10/17 00:02:47;;;;;;;;;;;;;;;21.37;100.00;99176.13;5061219;28;19934;-46
2022/10/17 00:05:12;;;;;;;;;;;;;;;20.98;100.00;99175.47;5028710;28;19966;-47
2022/10/17 00:07:37;;;;;;;;;;;;;;;21.12;100.00;99177.94;5061541;28;20003;-47
2022/10/17 00:10:03;;;;;;;;;;;;;;;21.38;100.00;99177.81;5059402;28;20693;-46
2022/10/17 00:12:28;;;;;;;;;;;;;;;21.33;100.00;99172.09;5058846;28;19972;-46
2022/10/17 00:14:54;;;;;;;;;;;;;;;21.88;100.00;99160.94;5059951;28;19987;-46
2022/10/17 00:17:19;;;;;;;;;;;;;;;21.46;100.00;99171.09;5060509;28;19962;-46
2022/10/17 00:19:44;;;;;;;;;;;;;;;21.26;100.00;99164.69;5060258;28;19966;-48
2022/10/17 00:22:09;;;;;;;;;;;;;;;22.02;100.00;99159.88;5060882;28;19929;-48
2022/10/17 00:24:35;;;;;;;;;;;;;;;21.38;100.00;99172.56;5060267;28;20424;-45
2022/10/17 00:27:00;;;;;;;;;;;;;;;21.14;100.00;99178.66;5060225;28;20409;-46
2022/10/17 00:29:25;;;;;;;;;;;;;;;20.77;100.00;99183.94;5060212;28;19931;-45
2022/10/17 00:31:53;;;;;;;;;;;;;;;21.00;100.00;99184.06;5060369;28;20027;-45
2022/10/17 00:34:18;;;;;;;;;;;;;;;21.46;100.00;99172.84;5058367;28;19920;-46
2022/10/17 00:36:43;;;;;;;;;;;;;;;21.05;100.00;99181.94;5059297;28;20365;-47
2022/10/17 00:39:09;;;;;;;;;;;;;;;20.96;100.00;99182.59;5057899;28;21352;-46
2022/10/17 00:41:34;;;;;;;;;;;;;;;20.92;100.00;99182.00;5059295;28;20308;-46
2022/10/17 00:44:04;;;;;;;;;;;;;;;21.29;100.00;99174.91;5028798;28;20003;-46
2022/10/17 00:46:30;;;;;;;;;;;;;;;21.04;100.00;99175.03;5058973;28;19920;-46
2022/10/17 00:48:57;;;;;;;;;;;;;;;21.22;100.00;99172.88;5059530;28;19921;-49
2022/10/17 00:51:38;;;;;;;;;;;;;;;21.25;100.00;99177.88;5042127;28;19921;-45
2022/10/17 00:54:03;;;;;;;;;;;;;;;22.22;100.00;99173.28;5059590;28;19920;-45
2022/10/17 00:56:28;;;;;;;;;;;;;;;22.12;100.00;99163.47;5042234;28;19927;-45
2022/10/17 00:58:54;;;;;;;;;;;;;;;21.65;100.00;99173.16;5040885;28;19944;-47
2022/10/17 01:01:19;;;;;;;;;;;;;;;22.19;100.00;99162.97;5041746;28;20377;-46
2022/10/17 01:03:44;;;;;;;;;;;;;;;21.78;100.00;99167.00;5041736;28;20034;-46
2022/10/17 01:06:09;;;;;;;;;;;;;;;20.73;100.00;99192.09;5024570;28;19925;-46
2022/10/17 01:08:34;;;;;;;;;;;;;;;20.51;100.00;99192.75;5059229;28;19924;-46
2022/10/17 01:11:03;;;;;;;;;;;;;;;20.54;100.00;99192.53;5059320;28;19920;-47
2022/10/17 01:13:31;;;;;;;;;;;;;;;20.99;100.00;99187.63;5059630;28;19932;-46
2022/10/17 01:15:59;;;;;;;;;;;;;;;21.15;100.00;99189.97;5059235;28;20373;-46
2022/10/17 01:18:30;;;;;;;;;;;;;;;21.12;100.00;99177.94;5059385;28;20478;-49
2022/10/17 01:20:55;;;;;;;;;;;;;;;21.63;100.00;99182.94;5059879;28;20392;-47
2022/10/17 01:23:27;;;;;;;;;;;;;;;21.19;100.00;99173.94;5059402;28;19920;-46
2022/10/17 01:25:54;;;;;;;;;;;;;;;20.63;100.00;99187.53;5059296;28;19935;-45
2022/10/17 01:28:41;;;;;;;;;;;;;;;20.83;100.00;99191.34;5041243;28;19924;-48
2022/10/17 01:31:08;;;;;;;;;;;;;;;21.18;100.00;99192.38;5041080;28;19989;-47
2022/10/17 01:33:55;;;;;;;;;;;;;;;20.87;100.00;99194.59;5041453;28;19920;-46
2022/10/17 01:36:20;;;;;;;;;;;;;;;21.10;100.00;99185.09;5059423;28;19928;-45
2022/10/17 01:38:47;;;;;;;;;;;;;;;20.57;100.00;99190.59;5055927;28;20328;-46
2022/10/17 01:41:22;;;;;;;;;;;;;;;21.02;100.00;99184.78;5039660;28;19960;-45
2022/10/17 01:43:49;;;;;;;;;;;;;;;21.02;100.00;99177.75;5059441;28;20045;-46
2022/10/17 01:46:15;;;;;;;;;;;;;;;21.24;100.00;99168.34;5057508;28;20020;-46
2022/10/17 01:48:41;;;;;;;;;;;;;;;21.14;100.00;99165.56;5058252;28;19921;-45
2022/10/17 01:51:08;;;;;;;;;;;;;;;20.98;100.00;99170.25;5041191;28;19927;-47
2022/10/17 01:53:34;;;;;;;;;;;;;;;21.01;100.00;99164.81;5040917;28;19924;-46
2022/10/17 01:56:00;;;;;;;;;;;;;;;21.19;100.00;99150.38;5041801;28;20007;-46
2022/10/17 01:58:51;;;;;;;;;;;;;;;21.20;100.00;99146.78;5058523;28;20007;-46
2022/10/17 02:01:16;;;;;;;;;;;;;;;21.21;100.00;99145.84;5026939;28;20305;-46
2022/10/17 02:03:42;;;;;;;;;;;;;;;21.02;100.00;99146.34;5040577;28;19928;-45
2022/10/17 02:06:07;;;;;;;;;;;;;;;20.97;100.00;99148.47;5040962;28;19931;-47
2022/10/17 02:08:46;;;;;;;;;;;;;;;20.91;100.00;99148.06;5043766;28;20363;-48
2022/10/17 02:11:18;;;;;;;;;;;;;;;21.22;100.00;99136.19;5045345;28;19999;-46
2022/10/17 02:13:52;;;;;;;;;;;;;;;20.99;100.00;99136.09;5045540;28;20011;-46
2022/10/17 02:16:26;;;;;;;;;;;;;;;21.36;100.00;99137.78;5062398;28;19930;-46
2022/10/17 02:18:51;;;;;;;;;;;;;;;21.50;100.00;99135.81;5062052;28;19921;-46
2022/10/17 02:21:26;;;;;;;;;;;;;;;21.19;100.00;99137.28;5062165;28;20459;-48
2022/10/17 02:23:54;;;;;;;;;;;;;;;21.33;100.00;99138.03;5063090;28;19931;-45
2022/10/17 02:26:37;;;;;;;;;;;;;;;20.99;100.00;99143.13;5062329;28;20312;-49
2022/10/17 02:29:05;;;;;;;;;;;;;;;20.87;100.00;99150.91;5043248;28;20016;-46
2022/10/17 02:31:32;;;;;;;;;;;;;;;20.76;100.00;99145.63;5044407;28;19926;-46
2022/10/17 02:33:58;;;;;;;;;;;;;;;21.20;100.00;99146.78;5062563;28;20007;-47
2022/10/17 02:36:31;;;;;;;;;;;;;;;21.66;100.00;99140.75;5044391;28;19979;-45
2022/10/17 02:38:57;;;;;;;;;;;;;;;21.52;100.00;99135.72;5042483;28;20035;-46
2022/10/17 02:41:22;;;;;;;;;;;;;;;21.53;100.00;99140.03;5043553;28;19931;-47
2022/10/17 02:43:47;;;;;;;;;;;;;;;21.39;100.00;99132.31;5044473;28;19974;-47
2022/10/17 02:46:19;;;;;;;;;;;;;;;21.43;100.00;99142.47;5041983;28;19980;-46
2022/10/17 02:48:46;;;;;;;;;;;;;;;21.63;100.00;99127.88;5044580;28;19994;-46
2022/10/17 02:51:14;;;;;;;;;;;;;;;21.53;100.00;99137.41;5043877;28;19947;-45
2022/10/17 02:53:45;;;;;;;;;;;;;;;21.36;100.00;99132.56;5044023;28;20397;-46
2022/10/17 02:56:15;;;;;;;;;;;;;;;21.06;100.00;99144.34;5044134;28;20389;-47
2022/10/17 02:58:41;;;;;;;;;;;;;;;21.44;100.00;99135.44;5043099;28;20082;-46
2022/10/17 03:01:06;;;;;;;;;;;;;;;20.96;100.00;99130.25;5061738;28;20413;-45
2022/10/17 03:03:31;;;;;;;;;;;;;;;21.39;100.00;99130.53;5043850;28;19955;-45
2022/10/17 03:05:57;;;;;;;;;;;;;;;21.10;100.00;99137.94;5061211;28;19947;-47
2022/10/17 03:08:22;;;;;;;;;;;;;;;21.21;100.00;99140.59;5059164;28;19916;-49
2022/10/17 03:10:47;;;;;;;;;;;;;;;21.42;100.00;99140.81;5060945;28;19920;-46
2022/10/17 03:13:13;;;;;;;;;;;;;;;21.38;100.00;99141.97;5042531;28;19935;-46
2022/10/17 03:15:38;;;;;;;;;;;;;;;21.24;100.00;99152.66;5061877;28;19920;-48
2022/10/17 03:18:03;;;;;;;;;;;;;;;21.36;100.00;99149.09;5060792;28;19931;-48
2022/10/17 03:20:29;;;;;;;;;;;;;;;21.38;100.00;99147.22;5060052;28;19928;-46
2022/10/17 03:22:54;;;;;;;;;;;;;;;20.78;100.00;99148.97;5061545;28;19924;-45
2022/10/17 03:25:19;;;;;;;;;;;;;;;21.22;100.00;99152.75;5060967;28;20290;-45
2022/10/17 03:27:44;;;;;;;;;;;;;;;20.94;100.00;99147.84;5060759;28;19928;-48
2022/10/17 03:30:10;;;;;;;;;;;;;;;21.26;100.00;99138.47;5043060;28;20175;-46
2022/10/17 03:32:35;;;;;;;;;;;;;;;21.24;100.00;99142.16;5061633;28;20539;-45
2022/10/17 03:35:00;;;;;;;;;;;;;;;21.10;100.00;99141.41;5060770;28;19916;-46
2022/10/17 03:37:26;;;;;;;;;;;;;;;21.10;100.00;99143.19;5061376;28;19921;-44
2022/10/17 03:39:51;;;;;;;;;;;;;;;21.19;100.00;99145.13;5059954;28;20152;-47
2022/10/17 03:42:16;;;;;;;;;;;;;;;21.07;100.00;99148.63;5060334;28;19924;-45
2022/10/17 03:44:41;;;;;;;;;;;;;;;21.21;100.00;99155.47;5061065;28;20438;-45
2022/10/17 03:47:07;;;;;;;;;;;;;;;21.31;100.00;99152.06;5060563;28;20492;-46
2022/10/17 03:49:32;;;;;;;;;;;;;;;21.28;100.00;99157.53;5059987;28;20499;-46
2022/10/17 03:51:57;;;;;;;;;;;;;;;20.71;100.00;99158.22;5060792;28;20368;-45
2022/10/17 03:54:22;;;;;;;;;;;;;;;21.30;100.00;99160.88;5061392;28;19920;-45
2022/10/17 03:56:48;;;;;;;;;;;;;;;21.27;100.00;99161.09;5061107;28;19920;-47
2022/10/17 03:59:13;;;;;;;;;;;;;;;21.50;100.00;99155.97;5060505;28;20014;-45
2022/10/17 04:01:38;;;;;;;;;;;;;;;21.51;100.00;99160.28;5060532;28;19999;-46
2022/10/17 04:04:04;;;;;;;;;;;;;;;21.10;100.00;99154.50;5059956;28;19920;-45
2022/10/17 04:06:29;;;;;;;;;;;;;;;21.63;100.00;99155.91;5042644;28;19981;-45
2022/10/17 04:08:54;;;;;;;;;;;;;;;21.13;100.00;99156.03;5059591;28;19975;-45
2022/10/17 04:11:20;;;;;;;;;;;;;;;21.44;100.00;99153.78;5060422;28;19925;-48
2022/10/17 04:13:45;;;;;;;;;;;;;;;21.21;100.00;99151.09;5060506;28;20436;-45
2022/10/17 04:16:11;;;;;;;;;;;;;;;21.12;100.00;99157.00;5060345;28;20403;-45
2022/10/17 04:18:37;;;;;;;;;;;;;;;20.87;100.00;99163.19;5060170;28;20361;-44
2022/10/17 04:21:02;;;;;;;;;;;;;;;20.96;100.00;99172.13;5061067;28;19991;-45
2022/10/17 04:23:27;;;;;;;;;;;;;;;21.27;100.00;99170.75;5060791;28;20419;-47
2022/10/17 04:25:56;;;;;;;;;;;;;;;21.08;100.00;99171.25;5060540;28;19935;-44
2022/10/17 04:28:22;;;;;;;;;;;;;;;21.16;100.00;99168.91;5059083;28;20526;-48
2022/10/17 04:30:47;;;;;;;;;;;;;;;21.22;100.00;99173.69;5060292;28;19923;-45
2022/10/17 04:33:12;;;;;;;;;;;;;;;21.33;100.00;99170.31;5060872;28;19912;-45
2022/10/17 04:35:37;;;;;;;;;;;;;;;21.30;100.00;99165.25;5060452;28;19934;-46
2022/10/17 04:38:02;;;;;;;;;;;;;;;21.28;100.00;99168.03;5059636;28;20031;-48
2022/10/17 04:40:28;;;;;;;;;;;;;;;21.42;100.00;99174.06;5059108;28;19975;-45
2022/10/17 04:42:53;;;;;;;;;;;;;;;21.20;100.00;99169.53;5060116;28;20022;-46
2022/10/17 04:45:18;;;;;;;;;;;;;;;21.10;100.00;99178.06;5058539;28;19920;-45
2022/10/17 04:47:43;;;;;;;;;;;;;;;21.07;100.00;99174.81;5060328;28;19920;-45
2022/10/17 04:50:09;;;;;;;;;;;;;;;20.76;100.00;99177.03;5060036;28;19993;-45
2022/10/17 04:52:36;;;;;;;;;;;;;;;21.29;100.00;99172.28;5059985;28;19948;-46
2022/10/17 04:55:01;;;;;;;;;;;;;;;20.93;100.00;99177.59;5060750;28;19924;-45
2022/10/17 04:57:26;;;;;;;;;;;;;;;20.96;100.00;99179.97;5058238;28;19916;-46
2022/10/17 04:59:52;;;;;;;;;;;;;;;21.29;100.00;99180.16;5058652;28;20347;-45
2022/10/17 05:02:17;;;;;;;;;;;;;;;21.21;100.00;99173.81;5059142;28;19950;-46
2022/10/17 05:04:42;;;;;;;;;;;;;;;21.00;100.00;99169.19;5059239;28;19916;-45
2022/10/17 05:07:07;;;;;;;;;;;;;;;20.67;100.00;99173.28;5058550;28;20461;-45
2022/10/17 05:09:33;;;;;;;;;;;;;;;21.00;100.00;99173.59;5059063;28;20449;-45
2022/10/17 05:11:58;;;;;;;;;;;;;;;21.38;100.00;99164.72;5058611;28;20370;-46
2022/10/17 05:14:23;;;;;;;;;;;;;;;21.29;100.00;99161.81;5059072;28;19916;-47
2022/10/17 05:16:48;;;;;;;;;;;;;;;20.84;100.00;99164.22;5042190;28;20403;-45
2022/10/17 05:19:14;;;;;;;;;;;;;;;20.89;100.00;99156.88;5059319;28;19928;-46
2022/10/17 05:21:39;;;;;;;;;;;;;;;21.01;100.00;99170.03;5060358;28;19924;-46
2022/10/17 05:24:07;;;;;;;;;;;;;;;20.88;100.00;99165.66;5059946;28;19918;-48
2022/10/17 05:26:33;;;;;;;;;;;;;;;21.19;100.00;99160.84;5059935;28;19943;-46
2022/10/17 05:28:59;;;;;;;;;;;;;;;21.09;100.00;99171.13;5059097;28;19916;-45
2022/10/17 05:31:24;;;;;;;;;;;;;;;21.24;100.00;99166.56;5059898;28;19973;-48
2022/10/17 05:33:49;;;;;;;;;;;;;;;20.69;100.00;99181.03;5059979;28;19916;-45
2022/10/17 05:36:15;;;;;;;;;;;;;;;21.13;100.00;99168.31;5059790;28;19913;-45
2022/10/17 05:38:40;;;;;;;;;;;;;;;20.96;100.00;99182.59;5056831;28;19917;-47
2022/10/17 05:41:05;;;;;;;;;;;;;;;21.10;100.00;99175.44;5059141;28;19916;-45
2022/10/17 05:43:31;;;;;;;;;;;;;;;20.88;100.00;99196.25;5059870;28;19990;-45
2022/10/17 05:45:56;;;;;;;;;;;;;;;20.88;100.00;99197.09;5041399;28;19923;-45
2022/10/17 05:48:21;;;;;;;;;;;;;;;20.89;100.00;99177.84;5058985;28;19924;-45
2022/10/17 05:50:47;;;;;;;;;;;;;;;20.85;100.00;99180.78;5059789;28;19952;-45
2022/10/17 05:53:12;;;;;;;;;;;;;;;20.69;100.00;99191.50;5059536;28;20047;-47
2022/10/17 05:55:38;;;;;;;;;;;;;;;21.04;100.00;99175.88;5041451;28;20241;-45
2022/10/17 05:58:04;;;;;;;;;;;;;;;20.97;100.00;99184.28;5059758;28;19913;-45
2022/10/17 06:00:29;;;;;;;;;;;;;;;21.19;100.00;99176.56;5059096;28;19921;-46
2022/10/17 06:02:54;;;;;;;;;;;;;;;20.95;100.00;99194.03;5041461;28;20301;-46
2022/10/17 06:05:20;;;;;;;;;;;;;;;21.27;100.00;99186.47;5059437;28;19922;-46
2022/10/17 06:07:45;;;;;;;;;;;;;;;21.62;100.00;99181.28;5059320;28;20325;-46
2022/10/17 06:10:12;;;;;;;;;;;;;;;21.24;100.00;99174.44;5058791;28;19917;-45
2022/10/17 06:12:37;;;;;;;;;;;;;;;20.81;100.00;99195.84;5041942;28;19916;-46
2022/10/17 06:15:03;;;;;;;;;;;;;;;20.99;100.00;99190.25;5059516;28;19916;-46
2022/10/17 06:17:29;;;;;;;;;;;;;;;21.01;100.00;99207.53;5059022;28;19990;-48
2022/10/17 06:19:54;;;;;;;;;;;;;;;21.28;100.00;99217.78;5058513;28;20007;-45
2022/10/17 06:22:19;;;;;;;;;;;;;;;21.19;100.00;99215.84;5059422;28;19917;-47
2022/10/17 06:24:45;;;;;;;;;;;;;;;21.31;100.00;99219.34;5059537;28;20011;-46
2022/10/17 06:27:10;;;;;;;;;;;;;;;21.19;100.00;99226.31;5059099;28;19972;-46
2022/10/17 06:29:35;;;;;;;;;;;;;;;21.31;100.00;99230.66;5040781;28;20395;-46
2022/10/17 06:32:00;;;;;;;;;;;;;;;20.98;100.00;99227.84;5058913;28;20392;-45
2022/10/17 06:34:26;;;;;;;;;;;;;;;21.00;100.00;99236.44;5059309;28;20377;-46
2022/10/17 06:36:51;;;;;;;;;;;;;;;21.37;100.00;99236.38;5057691;28;19962;-45
2022/10/17 06:39:17;;;;;;;;;;;;;;;20.92;100.00;99238.78;5037635;28;19912;-45
2022/10/17 06:41:43;;;;;;;;;;;;;;;20.74;100.00;99241.72;5058592;28;19916;-46
2022/10/17 06:44:10;;;;;;;;;;;;;;;21.26;100.00;99250.28;5058410;28;19922;-45
2022/10/17 06:46:35;;;;;;;;;;;;;;;21.22;100.00;99247.03;5059194;28;19913;-46
2022/10/17 06:49:01;;;;;;;;;;;;;;;21.17;100.00;99264.88;5057915;28;19921;-46
2022/10/17 06:51:26;;;;;;;;;;;;;;;20.91;100.00;99263.25;5058860;28;20031;-45
2022/10/17 06:53:51;;;;;;;;;;;;;;;20.97;100.00;99266.28;5061105;28;19968;-45
2022/10/17 06:56:18;;;;;;;;;;;;;;;21.38;100.00;99265.09;5062951;28;19960;-45
2022/10/17 06:58:43;;;;;;;;;;;;;;;21.04;100.00;99264.91;5061821;28;20011;-45
2022/10/17 07:01:09;;;;;;;;;;;;;;;21.19;100.00;99270.84;5043210;28;20482;-46
2022/10/17 07:03:35;;;;;;;;;;;;;;;21.80;100.00;99262.09;5028141;28;20425;-46
2022/10/17 07:06:00;;;;;;;;;;;;;;;21.40;100.00;99270.25;5062392;28;19984;-45
2022/10/17 07:08:25;;;;;;;;;;;;;;;21.28;100.00;99292.94;5062474;28;20008;-46
2022/10/17 07:10:51;;;;;;;;;;;;;;;21.34;100.00;99292.47;5062051;28;21015;-45
2022/10/17 07:13:17;;;;;;;;;;;;;;;21.66;100.00;99284.09;5062505;28;20344;-47
2022/10/17 07:15:42;;;;;;;;;;;;;;;21.65;100.00;99287.66;5062328;28;19998;-46
2022/10/17 07:18:07;;;;;;;;;;;;;;;21.62;100.00;99286.09;5062286;28;20002;-45
2022/10/17 07:20:33;;;;;;;;;;;;;;;21.88;100.00;99272.84;5043812;28;20010;-45
2022/10/17 07:22:58;;;;;;;;;;;;;;;21.38;100.00;99286.06;5027733;28;20035;-46
2022/10/17 07:25:23;;;;;;;;;;;;;;;21.97;100.00;99272.16;5041498;28;20052;-46
2022/10/17 07:27:49;;;;;;;;;;;;;;;22.22;100.00;99280.84;5058139;28;19920;-46
2022/10/17 07:30:14;;;;;;;;;;;;;;;22.23;100.00;99274.63;5060999;28;19917;-46
2022/10/17 07:32:40;;;;;;;;;;;;;;;21.87;100.00;99287.75;5061634;28;20007;-45
2022/10/17 07:35:06;;;;;;;;;;;;;;;22.28;100.00;99283.84;5061877;28;19966;-45
2022/10/17 07:37:31;;;;;;;;;;;;;;;22.38;100.00;99286.59;5060952;28;21043;-46
2022/10/17 07:39:56;;;;;;;;;;;;;;;22.03;100.00;99290.06;5042546;28;19920;-46
2022/10/17 07:42:21;;;;;;;;;;;;;;;22.51;100.00;99284.72;5060415;28;19954;-45
2022/10/17 07:44:47;;;;;;;;;;;;;;;21.89;100.00;99291.06;5060039;28;19920;-45
2022/10/17 07:47:12;;;;;;;;;;;;;;;21.84;100.00;99293.22;5060927;28;19927;-46
2022/10/17 07:49:41;;;;;;;;;;;;;;;21.82;100.00;99289.03;5060841;28;19916;-45
2022/10/17 07:52:08;;;;;;;;;;;;;;;22.66;100.00;99284.47;5061787;28;20519;-45
2022/10/17 07:54:33;;;;;;;;;;;;;;;22.52;100.00;99269.78;5061850;28;19916;-46
2022/10/17 07:56:58;;;;;;;;;;;;;;;21.90;100.00;99278.81;5061549;28;21322;-45
2022/10/17 07:59:23;;;;;;;;;;;;;;;21.86;100.00;99278.19;5060987;28;21012;-46
2022/10/17 08:01:49;;;;;;;;;;;;;;;22.24;100.00;99278.94;5061534;28;19927;-45
2022/10/17 08:04:15;;;;;;;;;;;;;;;22.32;100.00;99266.06;5061492;28;19916;-45
2022/10/17 08:06:40;;;;;;;;;;;;;;;22.58;100.00;99260.59;5061263;28;19921;-45
2022/10/17 08:09:06;;;;;;;;;;;;;;;22.51;100.00;99268.09;5060434;28;19982;-45
2022/10/17 08:11:31;;;;;;;;;;;;;;;22.29;100.00;99253.19;5060890;28;19916;-46
2022/10/17 08:13:56;;;;;;;;;;;;;;;22.81;100.00;99248.28;5060857;28;20333;-45
2022/10/17 08:16:21;;;;;;;;;;;;;;;22.43;100.00;99249.50;5061283;28;19916;-46
2022/10/17 08:18:46;;;;;;;;;;;;;;;22.81;100.00;99248.28;5060665;28;19920;-46
2022/10/17 08:21:12;;;;;;;;;;;;;;;22.43;100.00;99254.75;5060997;28;19955;-46
2022/10/17 08:23:37;;;;;;;;;;;;;;;22.25;100.00;99252.56;5060881;28;19919;-47
2022/10/17 08:26:03;;;;;;;;;;;;;;;22.45;100.00;99251.06;5026767;28;19934;-45
2022/10/17 08:28:28;;;;;;;;;;;;;;;22.46;100.00;99249.25;5040487;28;19924;-46
2022/10/17 08:31:04;;;;;;;;;;;;;;;22.20;100.00;99253.88;5060363;28;19967;-46
2022/10/17 08:33:29;;;;;;;;;;;;;;;22.60;100.00;99248.19;5043223;28;19916;-47
2022/10/17 08:35:54;;;;;;;;;;;;;;;22.37;100.00;99256.03;5060634;28;20448;-46
2022/10/17 08:38:19;;;;;;;;;;;;;;;22.66;100.00;99258.22;5060605;28;19936;-46
2022/10/17 08:40:47;;;;;;;;;;;;;;;23.36;100.00;99255.28;5058306;28;19924;-46
2022/10/17 08:43:22;;;;;;;;;;;;;;;23.00;100.00;99258.22;5060986;28;19958;-45
2022/10/17 08:45:50;;;;;;;;;;;;;;;22.61;100.00;99257.75;5042218;28;19924;-46
2022/10/17 08:48:16;;;;;;;;;;;;;;;22.76;100.00;99267.88;5042336;28;19931;-46
2022/10/17 08:51:17;;;;;;;;;;;;;;;22.89;100.00;99273.00;5060751;28;19973;-47
2022/10/17 08:53:50;;;;;;;;;;;;;;;22.90;100.00;99274.69;4979449;28;19918;-45
2022/10/17 08:56:15;;;;;;;;;;;;;;;23.31;100.00;99265.31;5047831;28;19920;-45
2022/10/17 08:58:40;;;;;;;;;;;;;;;23.70;100.00;99265.66;5060321;28;20362;-47
2022/10/17 09:01:12;;;;;;;;;;;;;;;23.54;100.00;99267.88;5042561;28;19921;-47
2022/10/17 09:03:56;;;;;;;;;;;;;;;23.41;100.00;99259.31;5059558;28;20007;-47
2022/10/17 09:06:28;;;;;;;;;;;;;;;23.28;100.00;99252.41;5058952;28;19916;-46
2022/10/17 09:09:03;;;;;;;;;;;;;;;23.02;100.00;99237.94;5042429;28;19916;-46
2022/10/17 09:11:48;;;;;;;;;;;;;;;23.36;100.00;99247.38;5060420;28;20498;-49
2022/10/17 09:14:29;;;;;;;;;;;;;;;23.37;100.00;99249.03;5025278;28;20994;-46
2022/10/17 09:16:54;;;;;;;;;;;;;;;23.74;100.00;99253.06;5042310;28;20643;-47
2022/10/17 09:19:23;;;;;;;;;;;;;;;24.05;100.00;99251.41;5059928;28;20003;-48
2022/10/17 09:21:49;;;;;;;;;;;;;;;24.38;100.00;99257.38;5060240;28;19916;-46
2022/10/17 09:24:17;;;;;;;;;;;;;;;25.28;100.00;99256.66;5060562;28;19913;-45
2022/10/17 09:26:43;;;;;;;;;;;;;;;24.66;100.00;99266.44;5041480;28;19920;-46
2022/10/17 09:29:14;;;;;;;;;;;;;;;25.66;100.00;99268.19;5059716;28;19948;-48
2022/10/17 09:31:42;;;;;;;;;;;;;;;25.92;100.00;99270.28;5060149;28;20444;-45
2022/10/17 09:34:07;;;;;;;;;;;;;;;25.83;100.00;99271.94;5042148;28;20316;-46
2022/10/17 09:36:33;;;;;;;;;;;;;;;25.65;100.00;99263.88;5042096;28;19916;-46
2022/10/17 09:39:00;;;;;;;;;;;;;;;26.15;100.00;99271.63;5058424;28;19920;-46
2022/10/17 09:41:28;;;;;;;;;;;;;;;25.94;100.00;99271.81;5042121;28;19942;-47
2022/10/17 09:43:56;;;;;;;;;;;;;;;25.88;100.00;99281.09;5059920;28;19917;-46
2022/10/17 09:46:41;;;;;;;;;;;;;;;25.72;100.00;99278.16;5042209;28;19916;-46
2022/10/17 09:49:11;;;;;;;;;;;;;;;25.07;100.00;99284.88;5040702;28;20015;-47
2022/10/17 09:51:37;;;;;;;;;;;;;;;25.23;100.00;99290.50;5042192;28;20870;-46
2022/10/17 09:54:03;;;;;;;;;;;;;;;25.31;100.00;99303.81;5042344;28;19921;-46
2022/10/17 09:56:28;;;;;;;;;;;;;;;25.32;100.00;99302.84;5042123;28;20012;-48
2022/10/17 09:58:57;;;;;;;;;;;;;;;24.83;100.00;99309.75;5058786;28;20008;-47
2022/10/17 10:01:22;;;;;;;;;;;;;;;25.04;100.00;99307.03;5059848;28;19924;-46
2022/10/17 10:03:48;;;;;;;;;;;;;;;24.81;100.00;99306.41;5060251;28;19925;-47
2022/10/17 10:06:15;;;;;;;;;;;;;;;24.84;100.00;99306.16;5059736;28;20399;-46
2022/10/17 10:08:49;;;;;;;;;;;;;;;24.97;100.00;99312.00;5058886;28;20270;-47
2022/10/17 10:11:14;;;;;;;;;;;;;;;25.62;100.00;99315.09;5060266;28;19927;-47
2022/10/17 10:13:39;;;;;;;;;;;;;;;24.99;100.00;99315.34;5060050;28;19938;-47
2022/10/17 10:16:19;;;;;;;;;;;;;;;25.78;100.00;99319.84;5059647;28;19924;-45
2022/10/17 10:18:44;;;;;;;;;;;;;;;25.70;100.00;99309.13;5040792;28;19999;-48
2022/10/17 10:21:12;;;;;;;;;;;;;;;25.86;100.00;99313.84;5060051;28;19991;-49
2022/10/17 10:23:41;;;;;;;;;;;;;;;25.58;100.00;99326.91;5059789;28;20345;-47
2022/10/17 10:26:33;;;;;;;;;;;;;;;25.58;100.00;99321.63;5059810;28;20511;-46
2022/10/17 10:29:02;;;;;;;;;;;;;;;25.53;100.00;99328.28;5056785;28;19977;-46
2022/10/17 10:31:32;;;;;;;;;;;;;;;26.15;100.00;99319.16;5045947;28;19931;-47
2022/10/17 10:33:58;;;;;;;;;;;;;;;26.28;100.00;99308.31;5045936;28;19916;-48
2022/10/17 10:36:23;;;;;;;;;;;;;;;26.48;100.00;99302.00;5063496;28;19920;-46
2022/10/17 10:38:52;;;;;;;;;;;;;;;26.44;100.00;99310.34;5061488;28;19917;-46
2022/10/17 10:41:18;;;;;;;;;;;;;;;26.79;100.00;99314.16;5063678;28;19931;-46
2022/10/17 10:43:46;;;;;;;;;;;;;;;27.17;100.00;99323.72;5045708;28;19912;-47
2022/10/17 10:46:25;;;;;;;;;;;;;;;27.05;100.00;99316.94;5045250;28;19971;-49
2022/10/17 10:48:55;;;;;;;;;;;;;;;27.25;100.00;99312.41;5062345;28;19921;-47
2022/10/17 10:51:22;;;;;;;;;;;;;;;27.48;100.00;99329.56;5044995;28;19917;-48
2022/10/17 10:53:54;;;;;;;;;;;;;;;27.18;100.00;99343.03;5045423;28;19963;-47
2022/10/17 10:56:20;;;;;;;;;;;;;;;27.62;100.00;99349.38;5063184;28;19966;-48
2022/10/17 10:58:45;;;;;;;;;;;;;;;26.92;100.00;99364.88;5062532;28;20364;-46
2022/10/17 11:01:16;;;;;;;;;;;;;;;26.95;100.00;99359.28;5062761;28;20500;-46
2022/10/17 11:03:46;;;;;;;;;;;;;;;27.80;100.00;99349.34;5045016;28;20430;-47
2022/10/17 11:06:27;;;;;;;;;;;;;;;27.64;100.00;99355.31;5028315;28;19916;-46
2022/10/17 11:09:11;;;;;;;;;;;;;;;27.58;100.00;99369.16;5061941;28;19921;-47
2022/10/17 11:11:38;;;;;;;;;;;;;;;27.18;100.00;99380.06;5062780;28;19922;-49
2022/10/17 11:14:17;;;;;;;;;;;;;;;27.06;100.00;99374.97;5044490;28;19927;-46
2022/10/17 11:16:42;;;;;;;;;;;;;;;27.98;100.00;99377.69;5044272;28;19921;-47
2022/10/17 11:19:13;;;;;;;;;;;;;;;26.43;100.00;99390.53;5062111;28;19916;-48
2022/10/17 11:21:55;;;;;;;;;;;;;;;26.88;100.00;99392.56;5062703;28;19920;-46
2022/10/17 11:24:24;;;;;;;;;;;;;;;26.82;100.00;99390.47;5044929;28;20393;-46
2022/10/17 11:26:54;;;;;;;;;;;;;;;26.89;100.00;99396.84;5043804;28;19970;-46
2022/10/17 11:29:27;;;;;;;;;;;;;;;27.61;100.00;99392.66;5042423;28;19952;-46
2022/10/17 11:31:52;;;;;;;;;;;;;;;28.14;100.00;99393.69;5043303;28;19913;-46
2022/10/17 11:34:20;;;;;;;;;;;;;;;27.90;100.00;99397.81;5044255;28;19916;-46
2022/10/17 11:36:45;;;;;;;;;;;;;;;27.40;100.00;99411.44;5062138;28;19920;-48
2022/10/17 11:39:13;;;;;;;;;;;;;;;27.13;100.00;99415.69;5059053;28;19917;-48
2022/10/17 11:41:43;;;;;;;;;;;;;;;27.16;100.00;99416.38;5061967;28;19935;-48
2022/10/17 11:44:19;;;;;;;;;;;;;;;26.85;100.00;99430.69;5027518;28;20337;-47
2022/10/17 11:46:45;;;;;;;;;;;;;;;26.62;100.00;99424.06;5043727;28;19951;-46
2022/10/17 11:49:11;;;;;;;;;;;;;;;26.98;100.00;99433.03;5042918;28;19952;-47
2022/10/17 11:51:40;;;;;;;;;;;;;;;26.52;100.00;99439.88;5044131;28;19916;-47
2022/10/17 11:54:19;;;;;;;;;;;;;;;27.23;100.00;99428.94;5061822;28;19920;-49
2022/10/17 11:56:51;;;;;;;;;;;;;;;27.05;100.00;99428.81;5044043;28;19920;-47
2022/10/17 11:59:26;;;;;;;;;;;;;;;27.62;100.00;99418.16;5061048;28;19916;-47
2022/10/17 12:01:56;;;;;;;;;;;;;;;27.02;100.00;99436.19;5044235;28;19921;-48
2022/10/17 12:04:29;;;;;;;;;;;;;;;26.60;100.00;99447.16;5044440;28;19917;-48
2022/10/17 12:07:04;;;;;;;;;;;;;;;27.22;100.00;99442.28;5043647;28;19923;-47
2022/10/17 12:09:41;;;;;;;;;;;;;;;26.68;100.00;99450.72;5059730;28;19916;-47
2022/10/17 12:12:06;;;;;;;;;;;;;;;27.39;100.00;99446.78;5060117;28;19912;-47
2022/10/17 12:14:45;;;;;;;;;;;;;;;27.12;100.00;99451.06;5060112;28;19928;-46
2022/10/17 12:17:31;;;;;;;;;;;;;;;27.61;100.00;99434.19;5042946;28;20442;-47
2022/10/17 12:20:15;;;;;;;;;;;;;;;27.93;100.00;99447.78;5060699;28;19920;-47
2022/10/17 12:22:45;;;;;;;;;;;;;;;27.99;100.00;99442.91;5061084;28;20557;-49
2022/10/17 12:25:15;;;;;;;;;;;;;;;27.18;100.00;99446.16;5061227;28;19927;-48
2022/10/17 12:27:45;;;;;;;;;;;;;;;27.25;100.00;99434.88;5061362;28;19946;-48
2022/10/17 12:30:17;;;;;;;;;;;;;;;27.19;100.00;99445.22;5060395;28;20262;-46
2022/10/17 12:32:56;;;;;;;;;;;;;;;26.63;100.00;99463.53;5043043;28;19928;-48
2022/10/17 12:35:22;;;;;;;;;;;;;;;26.84;100.00;99451.97;5042610;28;19986;-47
2022/10/17 12:37:47;;;;;;;;;;;;;;;27.66;100.00;99437.22;5060154;28;19912;-47